Lanvéoc-Poulmic Air Base

LFRL · Finistère, 布列塔尼半岛, 法国

罗盘
风向 的 风向 280° Lanvéoc-Poulmic Air Base 5/23
风: 11 kt, 4 beaufort

7 kt

8 kt
改变
0 ft 6.000 12.000 18.000 24.000 30.000
Cloud Cloud
FEW 1.700
Cloud Cloud Cloud Cloud Cloud Cloud
BKN 23.000
METAR LFRL 161600Z AUTO 28011KT 9999 FEW017 BKN230 18/14 Q1018 TEMPO 4000 -SHRA SCT012TCU

METAR Lanvéoc-Poulmic Air Base - LFRL

Lanvéoc-Poulmic Air Base是,法国中的中型机场。 该机场位于纬度48,28190和经度-4,44395。 该机场有2条跑道: 5/23 和 13/31. 本场的ICAO机场代码为LFRL。 机场在Brest FIR中。

该航空气象观测是针对Lanvéoc-Poulmic Air Base在2024年7月16日 18:00, 当地时间进行的。

机场观察

风向为280°,速度为11 kt。

可见度为10 km 或者更多。

有几云在1.700 ft的高度 和 碎云在23.000 ft的高度。 破损或更高的上限为23.000 ft。

温度和风寒是18 °C。 露点为14 °C,相对湿度为78%。 海平面上的气压为1018 hPa (QNH)。

发展趋势

  • 暂时的

    可变方向的风很小或没有。 可见性变为4 km。 重大天气:光 阵雨 雨。 疏云,零星散落的云朵 高耸的积云在1.200 ft的高度.

白天

今天,太阳从06:34升起,在22:13降落。 这适用于Lanvéoc-Poulmic Air Base,世界夏令时可能有所不同。 当地时间与世界标准时间之间的时差为+2 小时。 夏令时目前正在进行中。

公司介绍

我们没有关于这个机场的公司信息。

体会

到Vliegles.nl去找飞行课程,跳伞和其他飞行体验。 浏览页面,了解Lanvéoc-Poulmic Air Base附近所有可用的活动。 你也可以使用搜索功能来寻找你所在地附近的特定飞行课程、跳伞或其他飞行体验。

跑道

Id 标题 侧风 逆风 侧风 %
5/23 052°-232° 8 kt 7 kt 74 %
13/31 129°-309° 5 kt 10 kt 48 %

逆风成分最大的方向会被突出显示,并用于横风计算。 这并不一定意味着这个方向在使用。

乌云

1.700 ft FEW 几云
23.000 ft BKN 碎云
1.200 ft SCT 暂时的 疏云,零星散落的云朵 高耸的积云

温度 & 天气

温度 18 °C
露点 14 °C
相对湿度 78%
Kp-index 1 (0-9)

白天

日出
06:34
中午
14:23
日落
22:13 (3:41)

小工具

你想在你的网站上有一个关于Lanvéoc-Poulmic Air Base的当前航空天气(METAR)的小部件吗?

显示HTML代码
报告变更